createdAt,value
2023-01-07T00:01:24.962Z,39.50
2023-01-07T00:03:52.664Z,40.22
2023-01-07T00:06:23.369Z,37.85
2023-01-07T00:08:51.804Z,40.90
2023-01-07T00:11:21.117Z,42.28
2023-01-07T00:13:52.041Z,39.20
2023-01-07T00:16:21.958Z,41.15
2023-01-07T00:18:50.404Z,44.95
2023-01-07T00:21:18.538Z,51.28
2023-01-07T00:23:46.426Z,51.90
2023-01-07T00:26:18.591Z,51.58
2023-01-07T00:28:47.717Z,49.80
2023-01-07T00:31:20.465Z,50.53
2023-01-07T00:33:54.335Z,54.08
2023-01-07T00:36:27.415Z,52.57
2023-01-07T00:38:55.460Z,50.00
2023-01-07T00:41:22.711Z,51.78
2023-01-07T00:43:49.310Z,50.80
2023-01-07T00:46:16.230Z,56.90
2023-01-07T00:48:44.902Z,57.95
2023-01-07T00:51:13.544Z,59.45
2023-01-07T00:53:40.153Z,59.08
2023-01-07T00:56:06.960Z,62.65
2023-01-07T00:58:33.531Z,58.15
2023-01-07T01:01:01.956Z,51.53
2023-01-07T01:03:30.591Z,49.50
2023-01-07T01:06:02.628Z,52.97
2023-01-07T01:08:29.247Z,54.47
2023-01-07T01:10:56.053Z,56.30
2023-01-07T01:13:22.690Z,58.28
2023-01-07T01:15:49.748Z,53.30
2023-01-07T01:18:16.503Z,56.75
2023-01-07T01:20:43.218Z,55.88
2023-01-07T01:23:09.827Z,54.38
2023-01-07T01:25:36.407Z,52.90
2023-01-07T01:28:03.428Z,52.53
2023-01-07T01:30:29.987Z,53.15
2023-01-07T01:32:56.531Z,52.03
2023-01-07T01:35:23.183Z,51.83
2023-01-07T01:37:50.030Z,51.67
2023-01-07T01:40:16.697Z,54.58
2023-01-07T01:42:43.300Z,51.83
2023-01-07T01:45:11.856Z,52.95
2023-01-07T01:47:47.261Z,53.55
2023-01-07T01:50:42.279Z,50.70
2023-01-07T01:53:14.220Z,55.08
2023-01-07T01:55:47.535Z,50.67
2023-01-07T01:58:20.506Z,48.40
2023-01-07T02:00:47.334Z,48.40
2023-01-07T02:03:18.786Z,48.67
2023-01-07T02:05:46.256Z,48.97
2023-01-07T02:08:13.450Z,48.05
2023-01-07T02:10:40.151Z,45.45
2023-01-07T02:13:06.655Z,42.92
2023-01-07T02:15:51.789Z,41.03
2023-01-07T02:21:21.801Z,45.00
2023-01-07T02:24:25.909Z,46.88
2023-01-07T02:27:01.159Z,44.40
2023-01-07T02:30:01.377Z,43.08
2023-01-07T02:32:31.017Z,43.35
2023-01-07T02:35:24.643Z,41.40
2023-01-07T02:38:17.579Z,44.10
2023-01-07T02:41:02.443Z,43.72
2023-01-07T02:43:42.446Z,42.92
2023-01-07T02:46:24.181Z,39.67
2023-01-07T02:48:51.439Z,36.90
2023-01-07T02:51:18.021Z,34.20
2023-01-07T02:53:48.484Z,30.95
2023-01-07T02:56:30.285Z,29.15
2023-01-07T02:59:17.129Z,29.35
2023-01-07T03:02:14.016Z,29.70
2023-01-07T03:05:10.116Z,28.40
2023-01-07T03:08:15.260Z,32.10
2023-01-07T03:10:53.607Z,33.47
2023-01-07T03:13:37.628Z,33.47
2023-01-07T03:16:18.445Z,31.17
2023-01-07T03:18:56.270Z,31.67
2023-01-07T03:21:26.463Z,31.77
2023-01-07T03:23:56.752Z,30.95
2023-01-07T03:26:30.178Z,30.58
2023-01-07T03:29:00.129Z,28.67
2023-01-07T03:31:28.224Z,27.70
2023-01-07T03:33:57.568Z,27.98
2023-01-07T03:36:30.175Z,27.67
2023-01-07T03:38:57.068Z,29.33
2023-01-07T03:41:42.063Z,30.80
2023-01-07T03:44:08.623Z,32.50
2023-01-07T03:46:37.594Z,32.08
2023-01-07T03:49:04.800Z,29.90
2023-01-07T03:51:31.394Z,30.95
2023-01-07T03:53:57.996Z,28.77
2023-01-07T03:56:24.559Z,28.75
2023-01-07T03:58:51.172Z,26.33
2023-01-07T04:01:17.849Z,27.88
2023-01-07T04:03:44.472Z,27.15
2023-01-07T04:06:11.005Z,27.25
2023-01-07T04:08:37.687Z,26.80
2023-01-07T04:11:04.403Z,28.30
2023-01-07T04:13:31.205Z,27.30
2023-01-07T04:15:57.781Z,29.70
2023-01-07T04:18:25.444Z,30.48
2023-01-07T04:20:52.013Z,28.50
2023-01-07T04:23:18.615Z,29.67
2023-01-07T04:25:49.279Z,29.90
2023-01-07T04:28:16.207Z,32.38
2023-01-07T04:30:42.931Z,32.30
2023-01-07T04:33:09.614Z,30.40
2023-01-07T04:35:36.177Z,30.15
2023-01-07T04:38:02.792Z,31.42
2023-01-07T04:40:29.392Z,28.50
2023-01-07T04:42:56.009Z,30.30
2023-01-07T04:45:22.606Z,30.38
2023-01-07T04:47:49.215Z,30.85
2023-01-07T04:50:16.039Z,29.42
2023-01-07T04:52:42.966Z,30.88
2023-01-07T04:55:11.078Z,30.83
2023-01-07T04:57:37.753Z,28.70
2023-01-07T05:00:05.198Z,29.55
2023-01-07T05:02:31.936Z,28.67
2023-01-07T05:04:59.174Z,29.38
2023-01-07T05:07:25.778Z,27.67
2023-01-07T05:09:53.057Z,28.08
2023-01-07T05:12:19.597Z,30.27
2023-01-07T05:14:46.176Z,28.65
2023-01-07T05:17:12.736Z,29.60
2023-01-07T05:19:39.273Z,32.42
2023-01-07T05:22:05.903Z,32.75
2023-01-07T05:24:32.446Z,33.25
2023-01-07T05:26:59.095Z,34.80
2023-01-07T05:29:25.695Z,36.03
2023-01-07T05:31:52.360Z,36.70
2023-01-07T05:34:18.937Z,36.50
2023-01-07T05:36:45.528Z,36.78
2023-01-07T05:39:12.185Z,35.28
2023-01-07T05:41:38.776Z,34.97
2023-01-07T05:44:05.383Z,34.35
2023-01-07T05:46:31.999Z,32.90
2023-01-07T05:48:58.602Z,33.28
2023-01-07T05:51:25.320Z,32.42
2023-01-07T05:53:51.916Z,33.60
2023-01-07T05:56:18.827Z,34.97
2023-01-07T05:58:45.391Z,36.00
2023-01-07T06:01:12.030Z,36.80
2023-01-07T06:03:38.670Z,36.00
2023-01-07T06:06:07.446Z,36.70
2023-01-07T06:08:35.527Z,37.58
2023-01-07T06:11:02.510Z,37.58
2023-01-07T06:13:29.130Z,37.05
2023-01-07T06:16:04.163Z,38.47
2023-01-07T06:18:31.119Z,38.28
2023-01-07T06:20:57.718Z,37.15
2023-01-07T06:23:24.636Z,37.20
2023-01-07T06:25:51.348Z,38.20
2023-01-07T06:28:18.324Z,38.53
2023-01-07T06:30:46.436Z,39.17
2023-01-07T06:33:14.588Z,39.35
2023-01-07T06:35:41.508Z,38.80
2023-01-07T06:38:08.256Z,38.55
2023-01-07T06:40:34.879Z,39.50
2023-01-07T06:43:01.449Z,40.30
2023-01-07T06:45:28.177Z,39.35
2023-01-07T06:47:57.365Z,40.90
2023-01-07T06:50:24.532Z,39.05
2023-01-07T06:52:51.284Z,39.05
2023-01-07T06:55:17.995Z,40.67
2023-01-07T06:57:44.645Z,39.28
2023-01-07T07:00:11.848Z,40.58
2023-01-07T07:02:38.506Z,39.90
2023-01-07T07:05:05.419Z,41.00
2023-01-07T07:07:32.006Z,38.88
2023-01-07T07:09:58.782Z,38.40
2023-01-07T07:12:25.369Z,39.95
2023-01-07T07:14:51.932Z,41.00
2023-01-07T07:17:18.547Z,41.30
2023-01-07T07:19:45.099Z,42.30
2023-01-07T07:22:11.867Z,42.72
2023-01-07T07:24:38.457Z,40.65
2023-01-07T07:27:05.055Z,41.80
2023-01-07T07:29:31.649Z,44.00
2023-01-07T07:31:58.310Z,44.15
2023-01-07T07:34:24.913Z,47.90
2023-01-07T07:36:51.508Z,46.20
2023-01-07T07:39:18.151Z,47.53
2023-01-07T07:41:44.973Z,49.17
2023-01-07T07:44:11.583Z,51.35
2023-01-07T07:46:39.586Z,71.88
2023-01-07T07:49:09.568Z,69.40
2023-01-07T07:51:36.119Z,60.15
2023-01-07T07:54:02.747Z,65.85
2023-01-07T07:56:29.461Z,63.70
2023-01-07T07:58:56.012Z,62.53
2023-01-07T08:01:22.769Z,69.00
2023-01-07T08:03:49.393Z,66.65
2023-01-07T08:06:16.043Z,61.10
2023-01-07T08:08:42.694Z,54.63
2023-01-07T08:11:09.650Z,54.30
2023-01-07T08:13:36.239Z,63.80
2023-01-07T08:16:02.856Z,64.78
2023-01-07T08:18:29.485Z,69.68
2023-01-07T08:20:56.375Z,81.00
2023-01-07T08:23:23.282Z,80.18
2023-01-07T08:25:49.817Z,77.63
2023-01-07T08:28:16.466Z,70.55
2023-01-07T08:30:43.107Z,69.95
2023-01-07T08:33:09.762Z,65.60
2023-01-07T08:35:36.419Z,55.45
2023-01-07T08:38:08.706Z,50.88
2023-01-07T08:40:36.883Z,42.70
2023-01-07T08:43:07.457Z,42.38
2023-01-07T08:45:34.466Z,66.70
2023-01-07T08:48:01.195Z,96.43
2023-01-07T08:50:29.960Z,142.27
2023-01-07T08:52:56.817Z,209.23
2023-01-07T08:55:23.815Z,247.43
2023-01-07T08:57:52.188Z,76.70
2023-01-07T09:00:19.527Z,80.03
2023-01-07T09:02:46.332Z,85.47
2023-01-07T09:05:13.518Z,74.43
2023-01-07T09:07:40.163Z,77.72
2023-01-07T09:10:07.495Z,65.78
2023-01-07T09:12:34.137Z,50.00
2023-01-07T09:15:00.794Z,65.40
2023-01-07T09:17:28.081Z,40.05
2023-01-07T09:19:54.764Z,72.32
2023-01-07T09:22:22.220Z,51.78
2023-01-07T09:24:48.801Z,90.50
2023-01-07T09:27:16.698Z,43.95
2023-01-07T09:29:43.486Z,30.00
2023-01-07T09:32:10.717Z,28.50
2023-01-07T09:34:38.468Z,26.90
2023-01-07T09:37:06.212Z,28.40
2023-01-07T09:39:33.056Z,27.73
2023-01-07T09:42:33.801Z,27.27
2023-01-07T09:45:45.500Z,27.52
2023-01-07T09:48:22.033Z,24.55
2023-01-07T09:51:02.045Z,22.52
2023-01-07T09:53:39.409Z,21.80
2023-01-07T09:56:12.979Z,21.60
2023-01-07T09:58:42.533Z,19.13
2023-01-07T10:01:32.141Z,18.33
2023-01-07T10:04:10.903Z,16.35
2023-01-07T10:07:45.044Z,17.05
2023-01-07T10:10:26.080Z,17.13
2023-01-07T10:13:20.350Z,17.17
2023-01-07T10:16:22.353Z,17.33
2023-01-07T10:19:27.352Z,16.17
2023-01-07T10:21:58.950Z,17.58
2023-01-07T10:24:28.795Z,18.13
2023-01-07T10:27:01.564Z,16.73
2023-01-07T10:29:44.711Z,19.42
2023-01-07T10:32:16.890Z,18.27
2023-01-07T10:34:56.695Z,16.13
2023-01-07T10:37:36.368Z,16.83
2023-01-07T10:40:24.224Z,14.63
2023-01-07T10:43:16.224Z,16.42
2023-01-07T10:45:54.950Z,17.55
2023-01-07T10:48:30.216Z,17.20
2023-01-07T10:51:18.127Z,17.45
2023-01-07T10:54:15.563Z,16.92
2023-01-07T10:56:49.611Z,18.17
2023-01-07T10:59:19.562Z,18.15
2023-01-07T11:01:50.533Z,17.73
2023-01-07T11:04:17.941Z,18.58
2023-01-07T11:06:47.747Z,16.80
2023-01-07T11:09:20.011Z,16.45
2023-01-07T11:11:48.361Z,17.45
2023-01-07T11:14:37.667Z,18.15
2023-01-07T11:17:18.476Z,17.63
2023-01-07T11:19:54.196Z,17.65
2023-01-07T11:22:26.899Z,16.92
2023-01-07T11:24:58.593Z,16.70
2023-01-07T11:27:30.297Z,17.92
2023-01-07T11:30:05.503Z,17.65
2023-01-07T11:32:35.332Z,17.13
2023-01-07T11:35:18.092Z,16.48
2023-01-07T11:37:48.601Z,17.13
2023-01-07T11:40:15.161Z,16.30
2023-01-07T11:43:20.328Z,16.58
2023-01-07T11:46:19.644Z,18.02
2023-01-07T11:48:50.022Z,16.08
2023-01-07T11:51:17.092Z,16.27
2023-01-07T11:53:52.848Z,17.08
2023-01-07T11:56:30.621Z,16.52
2023-01-07T11:59:12.380Z,17.27
2023-01-07T12:01:43.407Z,17.05
2023-01-07T12:04:29.665Z,16.38
2023-01-07T12:07:00.384Z,16.77
2023-01-07T12:09:33.840Z,16.67
2023-01-07T12:12:31.939Z,15.23
2023-01-07T12:15:05.930Z,15.90
2023-01-07T12:17:35.221Z,16.17
2023-01-07T12:20:33.450Z,16.77
2023-01-07T12:23:25.918Z,15.80
2023-01-07T12:26:12.691Z,15.85
2023-01-07T12:29:01.999Z,16.63
2023-01-07T12:32:12.052Z,15.88
2023-01-07T12:35:15.487Z,15.32
2023-01-07T12:37:48.648Z,15.13
2023-01-07T12:40:18.178Z,16.53
2023-01-07T12:42:53.886Z,15.98
2023-01-07T12:45:33.911Z,15.50
2023-01-07T12:48:07.067Z,15.35
2023-01-07T12:50:43.641Z,15.68
2023-01-07T12:53:36.593Z,15.70
2023-01-07T12:56:23.931Z,15.27
2023-01-07T12:58:55.196Z,14.88
2023-01-07T13:01:30.224Z,16.23
2023-01-07T13:03:56.773Z,15.75
2023-01-07T13:06:38.469Z,15.98
2023-01-07T13:09:18.318Z,15.70
2023-01-07T13:12:45.915Z,15.32
2023-01-07T13:15:22.986Z,15.93
2023-01-07T13:17:51.279Z,16.52
2023-01-07T13:20:28.416Z,17.08
2023-01-07T13:22:57.938Z,16.02
2023-01-07T13:25:39.914Z,15.82
2023-01-07T13:28:21.733Z,17.00
2023-01-07T13:31:10.288Z,18.05
2023-01-07T13:33:36.839Z,18.95
2023-01-07T13:36:06.411Z,17.83
2023-01-07T13:38:54.087Z,18.92
2023-01-07T13:41:34.587Z,16.98
2023-01-07T13:44:43.227Z,18.38
2023-01-07T13:47:14.539Z,17.92
2023-01-07T13:49:56.495Z,17.67
2023-01-07T13:52:27.703Z,18.23
2023-01-07T13:54:56.933Z,18.48
2023-01-07T13:57:23.437Z,18.10
2023-01-07T13:59:52.850Z,19.67
2023-01-07T14:02:28.343Z,19.35
2023-01-07T14:05:29.210Z,18.40
2023-01-07T14:07:59.901Z,17.80
2023-01-07T14:10:34.965Z,16.70
2023-01-07T14:13:20.555Z,16.13
2023-01-07T14:15:59.503Z,16.08
2023-01-07T14:18:48.273Z,15.02
2023-01-07T14:21:22.530Z,15.90
2023-01-07T14:24:04.033Z,15.32
2023-01-07T14:26:41.966Z,16.15
2023-01-07T14:29:11.222Z,17.15
2023-01-07T14:31:37.921Z,17.88
2023-01-07T14:34:19.163Z,18.45
2023-01-07T14:37:09.738Z,17.73
2023-01-07T14:39:44.688Z,18.60
2023-01-07T14:42:20.357Z,17.15
2023-01-07T14:44:48.706Z,18.08
2023-01-07T14:47:41.034Z,17.30
2023-01-07T14:50:22.158Z,16.65
2023-01-07T14:52:48.675Z,15.40
2023-01-07T14:55:38.044Z,16.77
2023-01-07T14:58:25.755Z,17.02
2023-01-07T15:00:58.502Z,18.17
2023-01-07T15:03:59.524Z,19.33
2023-01-07T15:06:30.910Z,22.98
2023-01-07T15:09:24.344Z,26.35
2023-01-07T15:12:11.848Z,29.60
2023-01-07T15:15:07.861Z,32.88
2023-01-07T15:17:38.324Z,36.60
2023-01-07T15:20:06.484Z,41.03
2023-01-07T15:23:06.990Z,41.15
2023-01-07T15:25:56.527Z,41.60
2023-01-07T15:28:36.355Z,41.47
2023-01-07T15:31:36.866Z,40.78
2023-01-07T15:34:16.625Z,36.72
2023-01-07T15:36:49.801Z,34.83
2023-01-07T15:39:41.377Z,32.80
2023-01-07T15:42:16.145Z,29.38
2023-01-07T15:44:43.183Z,30.60
2023-01-07T15:47:41.617Z,29.05
2023-01-07T15:50:30.980Z,26.02
2023-01-07T15:53:22.191Z,27.98
2023-01-07T15:55:48.716Z,28.63
2023-01-07T15:58:19.642Z,30.70
2023-01-07T16:00:54.482Z,30.17
2023-01-07T16:03:21.925Z,31.25
2023-01-07T16:05:48.824Z,32.60
2023-01-07T16:08:27.177Z,35.47
2023-01-07T16:11:03.878Z,39.22
2023-01-07T16:13:31.497Z,38.83
2023-01-07T16:16:03.245Z,45.88
2023-01-07T16:18:34.156Z,39.80
2023-01-07T16:21:12.755Z,40.13
2023-01-07T16:23:40.381Z,36.45
2023-01-07T16:26:08.548Z,34.40
2023-01-07T16:28:41.965Z,35.90
2023-01-07T16:31:15.070Z,32.80
2023-01-07T16:33:43.169Z,33.42
2023-01-07T16:36:23.161Z,31.67
2023-01-07T16:38:56.836Z,34.03
2023-01-07T16:41:28.609Z,43.90
2023-01-07T16:43:56.689Z,62.42
2023-01-07T16:46:27.528Z,85.43
2023-01-07T16:49:09.693Z,106.82
2023-01-07T16:51:47.229Z,133.50
2023-01-07T16:54:28.257Z,155.10
2023-01-07T16:56:55.927Z,189.68
2023-01-07T16:59:26.427Z,206.05
2023-01-07T17:01:53.736Z,209.55
2023-01-07T17:04:27.812Z,199.57
2023-01-07T17:06:54.647Z,182.52
2023-01-07T17:09:32.705Z,156.27
2023-01-07T17:11:59.459Z,135.82
2023-01-07T17:14:38.206Z,109.93
2023-01-07T17:17:19.634Z,86.70
2023-01-07T17:20:12.541Z,69.55
2023-01-07T17:22:39.591Z,50.42
2023-01-07T17:25:07.105Z,46.38
2023-01-07T17:27:34.785Z,40.47
2023-01-07T17:30:03.084Z,40.10
2023-01-07T17:32:31.226Z,42.17
2023-01-07T17:35:04.037Z,44.10
2023-01-07T17:37:31.887Z,42.38
2023-01-07T17:39:58.623Z,45.17
2023-01-07T17:42:47.988Z,44.22
2023-01-07T17:45:17.071Z,43.70
2023-01-07T17:47:43.809Z,46.42
2023-01-07T17:50:13.442Z,48.85
2023-01-07T17:52:42.155Z,49.97
2023-01-07T17:55:14.101Z,53.13
2023-01-07T17:57:40.656Z,49.45
2023-01-07T18:00:12.511Z,49.53
2023-01-07T18:02:39.203Z,48.45
2023-01-07T18:05:06.319Z,52.33
2023-01-07T18:07:32.850Z,48.90
2023-01-07T18:09:59.449Z,52.83
2023-01-07T18:12:33.407Z,49.45
2023-01-07T18:15:04.248Z,48.88
2023-01-07T18:17:30.934Z,49.63
2023-01-07T18:19:57.560Z,51.10
2023-01-07T18:22:25.348Z,49.55
2023-01-07T18:24:52.127Z,46.60
2023-01-07T18:27:19.335Z,47.95
2023-01-07T18:29:45.971Z,46.50
2023-01-07T18:32:12.568Z,46.97
2023-01-07T18:34:39.156Z,47.22
2023-01-07T18:37:06.064Z,46.40
2023-01-07T18:39:32.672Z,48.90
2023-01-07T18:41:59.279Z,48.53
2023-01-07T18:44:26.002Z,46.67
2023-01-07T18:46:52.628Z,46.72
2023-01-07T18:49:19.341Z,48.85
2023-01-07T18:51:47.680Z,51.38
2023-01-07T18:54:15.350Z,51.28
2023-01-07T18:56:42.025Z,53.40
2023-01-07T18:59:08.613Z,55.42
2023-01-07T19:01:35.304Z,57.92
2023-01-07T19:04:02.586Z,61.80
2023-01-07T19:06:29.277Z,60.22
2023-01-07T19:08:56.989Z,59.85
2023-01-07T19:11:23.658Z,62.75
2023-01-07T19:13:50.254Z,66.45
2023-01-07T19:16:16.869Z,67.05
2023-01-07T19:18:43.471Z,72.13
2023-01-07T19:21:12.168Z,71.35
2023-01-07T19:23:38.972Z,73.85
2023-01-07T19:26:08.377Z,69.53
2023-01-07T19:28:35.687Z,75.50
2023-01-07T19:31:07.160Z,75.75
2023-01-07T19:33:34.897Z,75.82
2023-01-07T19:36:03.704Z,79.30
2023-01-07T19:38:30.645Z,83.80
2023-01-07T19:40:57.239Z,78.45
2023-01-07T19:43:23.900Z,84.97
2023-01-07T19:45:55.599Z,84.03
2023-01-07T19:48:23.330Z,86.32
2023-01-07T19:51:08.725Z,85.20
2023-01-07T19:53:35.787Z,85.70
2023-01-07T19:56:05.538Z,86.80
2023-01-07T19:58:32.801Z,88.28
2023-01-07T20:01:07.698Z,90.18
2023-01-07T20:03:35.455Z,87.55
2023-01-07T20:06:10.118Z,90.15
2023-01-07T20:11:03.982Z,69.32
2023-01-07T20:13:35.623Z,81.72
2023-01-07T20:16:07.361Z,80.53
2023-01-07T20:18:42.646Z,84.60
2023-01-07T20:21:10.131Z,85.32
2023-01-07T20:23:41.041Z,86.60
2023-01-07T20:26:18.715Z,87.70
2023-01-07T20:28:46.186Z,82.35
2023-01-07T20:31:15.028Z,88.30
2023-01-07T20:33:42.459Z,87.70
2023-01-07T20:36:12.180Z,86.07
2023-01-07T20:38:39.287Z,87.88
2023-01-07T20:41:08.529Z,86.97
2023-01-07T20:43:36.559Z,88.15
2023-01-07T20:46:06.177Z,86.20
2023-01-07T20:48:33.789Z,86.65
2023-01-07T20:51:05.278Z,89.10
2023-01-07T20:53:31.963Z,85.07
2023-01-07T20:56:00.047Z,89.32
2023-01-07T20:58:27.936Z,90.05
2023-01-07T21:00:54.624Z,88.55
2023-01-07T21:03:21.447Z,88.45
2023-01-07T21:05:48.148Z,86.43
2023-01-07T21:08:14.771Z,85.70
2023-01-07T21:10:41.552Z,87.60
2023-01-07T21:13:08.153Z,85.28
2023-01-07T21:15:36.576Z,86.40
2023-01-07T21:18:03.274Z,89.25
2023-01-07T21:20:29.907Z,89.03
2023-01-07T21:22:56.431Z,89.05
2023-01-07T21:25:23.067Z,89.30
2023-01-07T21:27:49.706Z,87.28
2023-01-07T21:30:18.180Z,86.25
2023-01-07T21:32:44.951Z,87.43
2023-01-07T21:35:12.403Z,87.97
2023-01-07T21:37:39.872Z,89.90
2023-01-07T21:40:07.340Z,88.68
2023-01-07T21:42:36.687Z,91.25
2023-01-07T21:45:03.964Z,90.18
2023-01-07T21:47:30.636Z,92.35
2023-01-07T21:49:58.405Z,92.93
2023-01-07T21:52:25.108Z,96.55
2023-01-07T21:54:52.015Z,98.25
2023-01-07T21:57:19.511Z,93.70
2023-01-07T21:59:46.431Z,94.32
2023-01-07T22:02:13.773Z,97.63
2023-01-07T22:04:43.475Z,97.38
2023-01-07T22:07:14.000Z,94.45
2023-01-07T22:09:40.958Z,93.75
2023-01-07T22:12:08.689Z,97.38
2023-01-07T22:14:35.281Z,93.95
2023-01-07T22:17:01.916Z,97.57
2023-01-07T22:19:28.711Z,103.10
2023-01-07T22:21:55.620Z,103.47
2023-01-07T22:24:22.179Z,104.00
2023-01-07T22:26:48.870Z,107.18
2023-01-07T22:29:17.373Z,106.88
2023-01-07T22:31:48.183Z,108.10
2023-01-07T22:34:14.903Z,104.25
2023-01-07T22:36:48.140Z,102.60
2023-01-07T22:39:25.959Z,109.85
2023-01-07T22:41:57.338Z,104.93
2023-01-07T22:44:33.338Z,113.30
2023-01-07T22:47:00.235Z,103.32
2023-01-07T22:49:30.484Z,109.00
2023-01-07T22:51:57.483Z,110.30
2023-01-07T22:54:26.131Z,114.18
2023-01-07T22:56:53.001Z,112.85
2023-01-07T22:59:19.542Z,111.20
2023-01-07T23:01:46.114Z,114.65
2023-01-07T23:04:13.259Z,115.10
2023-01-07T23:06:39.926Z,117.63
2023-01-07T23:09:06.635Z,120.80
2023-01-07T23:11:48.282Z,125.28
2023-01-07T23:14:16.849Z,116.90
2023-01-07T23:16:43.835Z,115.93
2023-01-07T23:19:10.851Z,116.30
2023-01-07T23:21:40.104Z,120.18
2023-01-07T23:24:07.380Z,116.65
2023-01-07T23:26:33.935Z,122.80
2023-01-07T23:29:00.499Z,123.03
2023-01-07T23:31:27.291Z,117.85
2023-01-07T23:33:53.912Z,117.82
2023-01-07T23:36:20.485Z,113.72
2023-01-07T23:38:47.156Z,119.25
2023-01-07T23:41:13.964Z,117.63
2023-01-07T23:43:40.658Z,115.10
2023-01-07T23:46:08.436Z,121.32
2023-01-07T23:48:37.231Z,119.85
2023-01-07T23:51:09.562Z,119.07
2023-01-07T23:53:36.436Z,124.05
2023-01-07T23:56:03.724Z,123.97
2023-01-07T23:58:30.841Z,122.45
